sensor_id;sensor_type;location;lat;lon;timestamp;P1;durP1;ratioP1;P2;durP2;ratioP2
583;SDS011;27024;54.068;12.116;2023-12-20T00:02:16;11.20;;;1.33;;
583;SDS011;27024;54.068;12.116;2023-12-20T00:04:43;5.15;;;0.82;;
583;SDS011;27024;54.068;12.116;2023-12-20T00:07:10;5.10;;;0.93;;
583;SDS011;27024;54.068;12.116;2023-12-20T00:09:37;8.52;;;0.85;;
583;SDS011;27024;54.068;12.116;2023-12-20T00:12:04;5.72;;;1.00;;
583;SDS011;27024;54.068;12.116;2023-12-20T00:14:32;6.32;;;1.13;;
583;SDS011;27024;54.068;12.116;2023-12-20T00:16:58;11.93;;;1.25;;
583;SDS011;27024;54.068;12.116;2023-12-20T00:19:26;7.35;;;0.90;;
583;SDS011;27024;54.068;12.116;2023-12-20T00:21:53;6.85;;;1.02;;
583;SDS011;27024;54.068;12.116;2023-12-20T00:24:19;9.75;;;1.00;;
583;SDS011;27024;54.068;12.116;2023-12-20T00:26:47;7.07;;;0.80;;
583;SDS011;27024;54.068;12.116;2023-12-20T00:29:14;4.10;;;1.05;;
583;SDS011;27024;54.068;12.116;2023-12-20T00:31:40;4.38;;;0.73;;
583;SDS011;27024;54.068;12.116;2023-12-20T00:34:07;6.30;;;0.80;;
583;SDS011;27024;54.068;12.116;2023-12-20T00:36:35;5.57;;;0.85;;
583;SDS011;27024;54.068;12.116;2023-12-20T00:39:02;3.75;;;0.60;;
583;SDS011;27024;54.068;12.116;2023-12-20T00:41:32;4.43;;;0.70;;
583;SDS011;27024;54.068;12.116;2023-12-20T00:43:59;5.47;;;0.85;;
583;SDS011;27024;54.068;12.116;2023-12-20T00:46:26;4.13;;;0.70;;
583;SDS011;27024;54.068;12.116;2023-12-20T00:48:53;6.20;;;0.52;;
583;SDS011;27024;54.068;12.116;2023-12-20T00:51:20;6.60;;;0.88;;
583;SDS011;27024;54.068;12.116;2023-12-20T00:53:47;4.35;;;0.52;;
583;SDS011;27024;54.068;12.116;2023-12-20T00:56:16;8.32;;;0.47;;
583;SDS011;27024;54.068;12.116;2023-12-20T00:58:43;10.55;;;0.55;;
583;SDS011;27024;54.068;12.116;2023-12-20T01:01:09;7.32;;;0.77;;
583;SDS011;27024;54.068;12.116;2023-12-20T01:03:37;5.80;;;0.30;;
583;SDS011;27024;54.068;12.116;2023-12-20T01:06:04;11.32;;;1.15;;
583;SDS011;27024;54.068;12.116;2023-12-20T01:08:31;7.85;;;0.68;;
583;SDS011;27024;54.068;12.116;2023-12-20T01:11:03;7.13;;;0.47;;
583;SDS011;27024;54.068;12.116;2023-12-20T01:13:30;7.22;;;0.57;;
583;SDS011;27024;54.068;12.116;2023-12-20T01:15:57;7.45;;;0.47;;
583;SDS011;27024;54.068;12.116;2023-12-20T01:18:24;5.68;;;0.35;;
583;SDS011;27024;54.068;12.116;2023-12-20T01:20:51;6.93;;;0.35;;
583;SDS011;27024;54.068;12.116;2023-12-20T01:23:18;9.38;;;1.10;;
583;SDS011;27024;54.068;12.116;2023-12-20T01:25:45;8.35;;;0.60;;
583;SDS011;27024;54.068;12.116;2023-12-20T01:28:12;4.80;;;0.63;;
583;SDS011;27024;54.068;12.116;2023-12-20T01:30:39;5.57;;;0.50;;
583;SDS011;27024;54.068;12.116;2023-12-20T01:33:06;6.72;;;0.40;;
583;SDS011;27024;54.068;12.116;2023-12-20T01:35:33;5.28;;;0.40;;
583;SDS011;27024;54.068;12.116;2023-12-20T01:38:00;5.03;;;0.40;;
583;SDS011;27024;54.068;12.116;2023-12-20T01:40:26;4.53;;;0.50;;
583;SDS011;27024;54.068;12.116;2023-12-20T01:43:00;6.32;;;0.68;;
583;SDS011;27024;54.068;12.116;2023-12-20T01:45:28;7.47;;;0.55;;
583;SDS011;27024;54.068;12.116;2023-12-20T01:47:55;6.88;;;0.52;;
583;SDS011;27024;54.068;12.116;2023-12-20T01:50:24;5.90;;;0.40;;
583;SDS011;27024;54.068;12.116;2023-12-20T01:52:51;7.40;;;0.70;;
583;SDS011;27024;54.068;12.116;2023-12-20T01:55:22;5.97;;;0.70;;
583;SDS011;27024;54.068;12.116;2023-12-20T01:57:49;8.98;;;0.98;;
583;SDS011;27024;54.068;12.116;2023-12-20T02:00:16;9.88;;;0.50;;
583;SDS011;27024;54.068;12.116;2023-12-20T02:02:44;10.40;;;0.80;;
583;SDS011;27024;54.068;12.116;2023-12-20T02:05:12;15.18;;;0.75;;
583;SDS011;27024;54.068;12.116;2023-12-20T02:07:40;5.82;;;0.50;;
583;SDS011;27024;54.068;12.116;2023-12-20T02:10:07;7.10;;;0.85;;
583;SDS011;27024;54.068;12.116;2023-12-20T02:12:34;6.53;;;0.60;;
583;SDS011;27024;54.068;12.116;2023-12-20T02:15:01;12.10;;;1.00;;
583;SDS011;27024;54.068;12.116;2023-12-20T02:17:29;12.20;;;1.42;;
583;SDS011;27024;54.068;12.116;2023-12-20T02:19:56;5.03;;;1.20;;
583;SDS011;27024;54.068;12.116;2023-12-20T02:22:23;11.60;;;1.58;;
583;SDS011;27024;54.068;12.116;2023-12-20T02:24:50;10.30;;;1.85;;
583;SDS011;27024;54.068;12.116;2023-12-20T02:27:17;11.85;;;1.77;;
583;SDS011;27024;54.068;12.116;2023-12-20T02:29:46;8.95;;;1.50;;
583;SDS011;27024;54.068;12.116;2023-12-20T02:32:14;11.05;;;1.35;;
583;SDS011;27024;54.068;12.116;2023-12-20T02:34:42;12.82;;;1.77;;
583;SDS011;27024;54.068;12.116;2023-12-20T02:37:09;11.27;;;1.50;;
583;SDS011;27024;54.068;12.116;2023-12-20T02:39:36;15.80;;;1.75;;
583;SDS011;27024;54.068;12.116;2023-12-20T02:42:03;12.27;;;1.35;;
583;SDS011;27024;54.068;12.116;2023-12-20T02:44:30;11.75;;;1.10;;
583;SDS011;27024;54.068;12.116;2023-12-20T02:46:57;11.82;;;1.13;;
583;SDS011;27024;54.068;12.116;2023-12-20T02:49:24;10.35;;;1.35;;
583;SDS011;27024;54.068;12.116;2023-12-20T02:51:51;8.75;;;1.63;;
583;SDS011;27024;54.068;12.116;2023-12-20T02:54:18;11.63;;;1.20;;
583;SDS011;27024;54.068;12.116;2023-12-20T02:56:45;9.57;;;1.15;;
583;SDS011;27024;54.068;12.116;2023-12-20T02:59:13;9.52;;;0.82;;
583;SDS011;27024;54.068;12.116;2023-12-20T03:01:43;9.77;;;1.05;;
583;SDS011;27024;54.068;12.116;2023-12-20T03:04:12;9.48;;;0.98;;
583;SDS011;27024;54.068;12.116;2023-12-20T03:06:39;10.43;;;1.05;;
583;SDS011;27024;54.068;12.116;2023-12-20T03:09:06;15.50;;;1.48;;
583;SDS011;27024;54.068;12.116;2023-12-20T03:11:34;12.70;;;1.50;;
583;SDS011;27024;54.068;12.116;2023-12-20T03:14:00;14.02;;;1.33;;
583;SDS011;27024;54.068;12.116;2023-12-20T03:16:27;8.45;;;1.13;;
583;SDS011;27024;54.068;12.116;2023-12-20T03:18:54;8.98;;;1.00;;
583;SDS011;27024;54.068;12.116;2023-12-20T03:21:21;10.07;;;1.77;;
583;SDS011;27024;54.068;12.116;2023-12-20T03:23:48;10.70;;;1.00;;
583;SDS011;27024;54.068;12.116;2023-12-20T03:26:15;9.85;;;0.75;;
583;SDS011;27024;54.068;12.116;2023-12-20T03:28:41;15.45;;;1.73;;
583;SDS011;27024;54.068;12.116;2023-12-20T03:31:09;11.52;;;0.80;;
583;SDS011;27024;54.068;12.116;2023-12-20T03:33:36;7.53;;;0.93;;
583;SDS011;27024;54.068;12.116;2023-12-20T03:36:04;9.63;;;0.80;;
583;SDS011;27024;54.068;12.116;2023-12-20T03:38:31;5.60;;;0.60;;
583;SDS011;27024;54.068;12.116;2023-12-20T03:40:57;4.38;;;0.82;;
583;SDS011;27024;54.068;12.116;2023-12-20T03:43:24;10.98;;;0.88;;
583;SDS011;27024;54.068;12.116;2023-12-20T03:45:51;13.93;;;1.38;;
583;SDS011;27024;54.068;12.116;2023-12-20T03:48:18;10.73;;;0.93;;
583;SDS011;27024;54.068;12.116;2023-12-20T03:50:45;9.10;;;1.10;;
583;SDS011;27024;54.068;12.116;2023-12-20T03:53:12;15.35;;;0.65;;
583;SDS011;27024;54.068;12.116;2023-12-20T03:55:39;11.10;;;0.93;;
583;SDS011;27024;54.068;12.116;2023-12-20T03:58:05;17.55;;;1.30;;
583;SDS011;27024;54.068;12.116;2023-12-20T04:00:32;8.00;;;0.50;;
583;SDS011;27024;54.068;12.116;2023-12-20T04:02:59;11.85;;;0.80;;
583;SDS011;27024;54.068;12.116;2023-12-20T04:05:26;8.35;;;0.90;;
583;SDS011;27024;54.068;12.116;2023-12-20T04:07:53;11.18;;;0.80;;
583;SDS011;27024;54.068;12.116;2023-12-20T04:10:20;8.45;;;1.08;;
583;SDS011;27024;54.068;12.116;2023-12-20T04:12:47;12.35;;;1.10;;
583;SDS011;27024;54.068;12.116;2023-12-20T04:15:14;11.55;;;1.45;;
583;SDS011;27024;54.068;12.116;2023-12-20T04:17:41;5.03;;;0.93;;
583;SDS011;27024;54.068;12.116;2023-12-20T04:20:08;13.40;;;1.13;;
583;SDS011;27024;54.068;12.116;2023-12-20T04:22:35;13.80;;;1.27;;
583;SDS011;27024;54.068;12.116;2023-12-20T04:25:02;11.57;;;1.50;;
583;SDS011;27024;54.068;12.116;2023-12-20T04:27:29;8.65;;;1.05;;
583;SDS011;27024;54.068;12.116;2023-12-20T04:29:56;11.65;;;1.98;;
583;SDS011;27024;54.068;12.116;2023-12-20T04:32:23;7.90;;;1.35;;
583;SDS011;27024;54.068;12.116;2023-12-20T04:34:50;17.67;;;2.05;;
583;SDS011;27024;54.068;12.116;2023-12-20T04:37:17;8.25;;;0.93;;
583;SDS011;27024;54.068;12.116;2023-12-20T04:39:44;11.65;;;1.52;;
583;SDS011;27024;54.068;12.116;2023-12-20T04:42:11;9.90;;;1.77;;
583;SDS011;27024;54.068;12.116;2023-12-20T04:44:38;13.68;;;1.50;;
583;SDS011;27024;54.068;12.116;2023-12-20T04:47:06;8.45;;;1.13;;
583;SDS011;27024;54.068;12.116;2023-12-20T04:49:33;8.23;;;1.60;;
583;SDS011;27024;54.068;12.116;2023-12-20T04:52:00;12.40;;;2.35;;
583;SDS011;27024;54.068;12.116;2023-12-20T04:54:27;8.77;;;1.95;;
583;SDS011;27024;54.068;12.116;2023-12-20T04:56:54;15.10;;;1.42;;
583;SDS011;27024;54.068;12.116;2023-12-20T04:59:21;11.48;;;2.03;;
583;SDS011;27024;54.068;12.116;2023-12-20T05:01:48;10.07;;;1.50;;
583;SDS011;27024;54.068;12.116;2023-12-20T05:04:16;16.80;;;2.30;;
583;SDS011;27024;54.068;12.116;2023-12-20T05:06:43;10.25;;;1.80;;
583;SDS011;27024;54.068;12.116;2023-12-20T05:09:10;11.63;;;1.85;;
583;SDS011;27024;54.068;12.116;2023-12-20T05:11:37;13.27;;;2.10;;
583;SDS011;27024;54.068;12.116;2023-12-20T05:14:04;10.80;;;1.70;;
583;SDS011;27024;54.068;12.116;2023-12-20T05:16:31;9.27;;;1.92;;
583;SDS011;27024;54.068;12.116;2023-12-20T05:18:57;8.50;;;1.90;;
583;SDS011;27024;54.068;12.116;2023-12-20T05:21:27;9.38;;;1.63;;
583;SDS011;27024;54.068;12.116;2023-12-20T05:23:54;10.85;;;1.83;;
583;SDS011;27024;54.068;12.116;2023-12-20T05:26:21;7.63;;;1.83;;
583;SDS011;27024;54.068;12.116;2023-12-20T05:28:48;12.00;;;1.85;;
583;SDS011;27024;54.068;12.116;2023-12-20T05:31:15;12.65;;;2.10;;
583;SDS011;27024;54.068;12.116;2023-12-20T05:33:42;10.82;;;1.70;;
583;SDS011;27024;54.068;12.116;2023-12-20T05:36:09;12.43;;;1.65;;
583;SDS011;27024;54.068;12.116;2023-12-20T05:38:38;15.55;;;1.98;;
583;SDS011;27024;54.068;12.116;2023-12-20T05:41:04;11.57;;;1.50;;
583;SDS011;27024;54.068;12.116;2023-12-20T05:43:31;9.65;;;2.53;;
583;SDS011;27024;54.068;12.116;2023-12-20T05:45:59;8.52;;;1.45;;
583;SDS011;27024;54.068;12.116;2023-12-20T05:48:26;13.48;;;1.73;;
583;SDS011;27024;54.068;12.116;2023-12-20T05:50:54;10.88;;;1.67;;
583;SDS011;27024;54.068;12.116;2023-12-20T05:53:21;10.55;;;1.60;;
583;SDS011;27024;54.068;12.116;2023-12-20T05:55:48;13.30;;;1.92;;
583;SDS011;27024;54.068;12.116;2023-12-20T05:58:14;9.85;;;1.90;;
583;SDS011;27024;54.068;12.116;2023-12-20T06:00:42;14.35;;;1.77;;
583;SDS011;27024;54.068;12.116;2023-12-20T06:03:09;10.23;;;1.55;;
583;SDS011;27024;54.068;12.116;2023-12-20T06:05:36;9.27;;;1.27;;
583;SDS011;27024;54.068;12.116;2023-12-20T06:08:03;10.10;;;1.90;;
583;SDS011;27024;54.068;12.116;2023-12-20T06:10:30;10.52;;;2.15;;
583;SDS011;27024;54.068;12.116;2023-12-20T06:12:57;10.13;;;1.73;;
583;SDS011;27024;54.068;12.116;2023-12-20T06:15:25;12.60;;;1.77;;
583;SDS011;27024;54.068;12.116;2023-12-20T06:17:53;13.05;;;1.80;;
583;SDS011;27024;54.068;12.116;2023-12-20T06:20:20;16.42;;;1.63;;
583;SDS011;27024;54.068;12.116;2023-12-20T06:22:47;8.40;;;1.92;;
583;SDS011;27024;54.068;12.116;2023-12-20T06:25:14;7.13;;;1.83;;
583;SDS011;27024;54.068;12.116;2023-12-20T06:27:41;11.65;;;1.75;;
583;SDS011;27024;54.068;12.116;2023-12-20T06:30:08;8.48;;;1.83;;
583;SDS011;27024;54.068;12.116;2023-12-20T06:32:35;9.10;;;1.73;;
583;SDS011;27024;54.068;12.116;2023-12-20T06:35:04;8.80;;;1.90;;
583;SDS011;27024;54.068;12.116;2023-12-20T06:37:32;10.07;;;1.58;;
583;SDS011;27024;54.068;12.116;2023-12-20T06:39:59;6.60;;;2.40;;
583;SDS011;27024;54.068;12.116;2023-12-20T06:42:26;10.15;;;2.15;;
583;SDS011;27024;54.068;12.116;2023-12-20T06:44:53;9.18;;;1.40;;
583;SDS011;27024;54.068;12.116;2023-12-20T06:47:20;11.93;;;1.63;;
583;SDS011;27024;54.068;12.116;2023-12-20T06:49:47;11.98;;;2.38;;
583;SDS011;27024;54.068;12.116;2023-12-20T06:52:14;6.15;;;0.90;;
583;SDS011;27024;54.068;12.116;2023-12-20T06:54:41;8.23;;;1.27;;
583;SDS011;27024;54.068;12.116;2023-12-20T06:57:08;2.03;;;0.32;;
583;SDS011;27024;54.068;12.116;2023-12-20T06:59:39;4.63;;;0.50;;
583;SDS011;27024;54.068;12.116;2023-12-20T07:02:08;6.05;;;0.93;;
583;SDS011;27024;54.068;12.116;2023-12-20T07:04:41;3.70;;;0.68;;
583;SDS011;27024;54.068;12.116;2023-12-20T07:07:08;7.32;;;1.20;;
583;SDS011;27024;54.068;12.116;2023-12-20T07:09:35;6.03;;;1.20;;
583;SDS011;27024;54.068;12.116;2023-12-20T07:12:02;7.72;;;1.45;;
583;SDS011;27024;54.068;12.116;2023-12-20T07:14:29;8.65;;;1.35;;
583;SDS011;27024;54.068;12.116;2023-12-20T07:16:56;7.63;;;1.38;;
583;SDS011;27024;54.068;12.116;2023-12-20T07:19:23;9.25;;;1.10;;
583;SDS011;27024;54.068;12.116;2023-12-20T07:21:50;7.82;;;1.67;;
583;SDS011;27024;54.068;12.116;2023-12-20T07:24:17;13.43;;;2.10;;
583;SDS011;27024;54.068;12.116;2023-12-20T07:26:44;6.85;;;1.65;;
583;SDS011;27024;54.068;12.116;2023-12-20T07:29:11;8.52;;;1.50;;
583;SDS011;27024;54.068;12.116;2023-12-20T07:31:38;11.98;;;2.38;;
583;SDS011;27024;54.068;12.116;2023-12-20T07:34:05;9.02;;;2.00;;
583;SDS011;27024;54.068;12.116;2023-12-20T07:36:32;12.20;;;2.28;;
583;SDS011;27024;54.068;12.116;2023-12-20T07:38:59;13.15;;;2.10;;
583;SDS011;27024;54.068;12.116;2023-12-20T07:41:26;11.93;;;2.45;;
583;SDS011;27024;54.068;12.116;2023-12-20T07:43:53;12.25;;;2.13;;
583;SDS011;27024;54.068;12.116;2023-12-20T07:46:20;11.70;;;2.25;;
583;SDS011;27024;54.068;12.116;2023-12-20T07:48:50;10.27;;;1.95;;
583;SDS011;27024;54.068;12.116;2023-12-20T07:51:17;12.25;;;2.28;;
583;SDS011;27024;54.068;12.116;2023-12-20T07:53:44;7.68;;;1.80;;
583;SDS011;27024;54.068;12.116;2023-12-20T07:56:15;13.98;;;1.70;;
583;SDS011;27024;54.068;12.116;2023-12-20T07:58:43;7.47;;;1.42;;
583;SDS011;27024;54.068;12.116;2023-12-20T08:01:18;6.53;;;0.90;;
583;SDS011;27024;54.068;12.116;2023-12-20T08:03:46;14.75;;;1.80;;
583;SDS011;27024;54.068;12.116;2023-12-20T08:06:13;10.52;;;1.60;;
583;SDS011;27024;54.068;12.116;2023-12-20T08:08:40;7.57;;;1.23;;
583;SDS011;27024;54.068;12.116;2023-12-20T08:11:09;10.93;;;0.90;;
583;SDS011;27024;54.068;12.116;2023-12-20T08:13:36;3.97;;;0.75;;
583;SDS011;27024;54.068;12.116;2023-12-20T08:16:03;8.05;;;1.30;;
583;SDS011;27024;54.068;12.116;2023-12-20T08:18:32;7.10;;;0.95;;
583;SDS011;27024;54.068;12.116;2023-12-20T08:20:59;5.78;;;1.08;;
583;SDS011;27024;54.068;12.116;2023-12-20T08:23:26;6.40;;;1.10;;
583;SDS011;27024;54.068;12.116;2023-12-20T08:25:56;4.68;;;0.52;;
583;SDS011;27024;54.068;12.116;2023-12-20T08:28:23;5.90;;;0.77;;
583;SDS011;27024;54.068;12.116;2023-12-20T08:30:50;10.07;;;1.23;;
583;SDS011;27024;54.068;12.116;2023-12-20T08:33:20;9.55;;;1.00;;
583;SDS011;27024;54.068;12.116;2023-12-20T08:35:47;4.97;;;1.05;;
583;SDS011;27024;54.068;12.116;2023-12-20T08:38:14;9.85;;;0.98;;
583;SDS011;27024;54.068;12.116;2023-12-20T08:40:43;11.48;;;2.10;;
583;SDS011;27024;54.068;12.116;2023-12-20T08:43:10;8.45;;;1.45;;
583;SDS011;27024;54.068;12.116;2023-12-20T08:45:37;6.72;;;0.70;;
583;SDS011;27024;54.068;12.116;2023-12-20T08:48:05;9.30;;;1.95;;
583;SDS011;27024;54.068;12.116;2023-12-20T08:50:35;6.45;;;0.77;;
583;SDS011;27024;54.068;12.116;2023-12-20T08:53:03;4.85;;;0.80;;
583;SDS011;27024;54.068;12.116;2023-12-20T08:55:30;5.80;;;0.75;;
583;SDS011;27024;54.068;12.116;2023-12-20T08:57:58;7.63;;;0.80;;
583;SDS011;27024;54.068;12.116;2023-12-20T09:00:26;4.72;;;0.70;;
583;SDS011;27024;54.068;12.116;2023-12-20T09:02:54;4.60;;;0.73;;
583;SDS011;27024;54.068;12.116;2023-12-20T09:05:21;3.05;;;0.40;;
583;SDS011;27024;54.068;12.116;2023-12-20T09:07:49;2.30;;;0.52;;
583;SDS011;27024;54.068;12.116;2023-12-20T09:10:16;9.35;;;0.50;;
583;SDS011;27024;54.068;12.116;2023-12-20T09:15:23;4.18;;;0.50;;
583;SDS011;27024;54.068;12.116;2023-12-20T09:17:51;4.57;;;0.73;;
583;SDS011;27024;54.068;12.116;2023-12-20T09:20:18;5.47;;;0.52;;
583;SDS011;27024;54.068;12.116;2023-12-20T09:22:45;5.32;;;0.68;;
583;SDS011;27024;54.068;12.116;2023-12-20T09:25:12;8.45;;;1.23;;
583;SDS011;27024;54.068;12.116;2023-12-20T09:27:40;8.25;;;1.08;;
583;SDS011;27024;54.068;12.116;2023-12-20T09:30:08;11.00;;;1.20;;
583;SDS011;27024;54.068;12.116;2023-12-20T09:32:35;6.28;;;1.05;;
583;SDS011;27024;54.068;12.116;2023-12-20T09:35:02;6.15;;;1.02;;
583;SDS011;27024;54.068;12.116;2023-12-20T09:37:32;6.45;;;0.80;;
583;SDS011;27024;54.068;12.116;2023-12-20T09:39:59;8.65;;;0.88;;
583;SDS011;27024;54.068;12.116;2023-12-20T09:42:36;6.57;;;0.60;;
583;SDS011;27024;54.068;12.116;2023-12-20T09:45:08;7.93;;;1.10;;
583;SDS011;27024;54.068;12.116;2023-12-20T09:47:38;4.07;;;0.65;;
583;SDS011;27024;54.068;12.116;2023-12-20T09:50:07;4.75;;;0.47;;
583;SDS011;27024;54.068;12.116;2023-12-20T09:52:36;3.85;;;0.82;;
583;SDS011;27024;54.068;12.116;2023-12-20T09:55:03;3.08;;;0.60;;
583;SDS011;27024;54.068;12.116;2023-12-20T09:57:34;4.22;;;0.43;;
583;SDS011;27024;54.068;12.116;2023-12-20T10:00:01;3.35;;;0.60;;
583;SDS011;27024;54.068;12.116;2023-12-20T10:02:28;4.65;;;0.70;;
583;SDS011;27024;54.068;12.116;2023-12-20T10:04:58;5.55;;;0.65;;
583;SDS011;27024;54.068;12.116;2023-12-20T10:07:27;3.80;;;0.90;;
583;SDS011;27024;54.068;12.116;2023-12-20T10:09:54;4.95;;;0.57;;
583;SDS011;27024;54.068;12.116;2023-12-20T10:12:22;5.45;;;1.25;;
583;SDS011;27024;54.068;12.116;2023-12-20T10:14:50;9.00;;;1.27;;
583;SDS011;27024;54.068;12.116;2023-12-20T10:17:17;8.35;;;1.02;;
583;SDS011;27024;54.068;12.116;2023-12-20T10:19:44;3.90;;;1.00;;
583;SDS011;27024;54.068;12.116;2023-12-20T10:22:12;5.82;;;1.13;;
583;SDS011;27024;54.068;12.116;2023-12-20T10:24:39;11.20;;;1.92;;
583;SDS011;27024;54.068;12.116;2023-12-20T10:27:07;13.40;;;2.00;;
583;SDS011;27024;54.068;12.116;2023-12-20T10:29:35;9.57;;;1.58;;
583;SDS011;27024;54.068;12.116;2023-12-20T10:32:23;8.23;;;1.42;;
583;SDS011;27024;54.068;12.116;2023-12-20T10:34:52;9.52;;;1.58;;
583;SDS011;27024;54.068;12.116;2023-12-20T10:37:20;5.50;;;1.52;;
583;SDS011;27024;54.068;12.116;2023-12-20T10:39:49;13.10;;;2.25;;
583;SDS011;27024;54.068;12.116;2023-12-20T10:42:20;7.13;;;1.52;;
583;SDS011;27024;54.068;12.116;2023-12-20T10:44:48;9.75;;;1.70;;
583;SDS011;27024;54.068;12.116;2023-12-20T10:47:17;7.72;;;1.70;;
583;SDS011;27024;54.068;12.116;2023-12-20T10:49:44;6.15;;;0.63;;
583;SDS011;27024;54.068;12.116;2023-12-20T10:52:12;5.10;;;0.43;;
583;SDS011;27024;54.068;12.116;2023-12-20T10:54:40;1.90;;;0.35;;
583;SDS011;27024;54.068;12.116;2023-12-20T10:57:07;5.80;;;0.75;;
583;SDS011;27024;54.068;12.116;2023-12-20T10:59:35;2.67;;;0.52;;
583;SDS011;27024;54.068;12.116;2023-12-20T11:02:04;3.13;;;0.30;;
583;SDS011;27024;54.068;12.116;2023-12-20T11:04:44;3.03;;;0.20;;
583;SDS011;27024;54.068;12.116;2023-12-20T11:07:19;3.13;;;0.75;;
583;SDS011;27024;54.068;12.116;2023-12-20T11:10:10;5.03;;;0.75;;
583;SDS011;27024;54.068;12.116;2023-12-20T11:13:02;6.50;;;0.30;;
583;SDS011;27024;54.068;12.116;2023-12-20T11:15:39;3.13;;;0.50;;
583;SDS011;27024;54.068;12.116;2023-12-20T11:18:06;3.70;;;0.50;;
583;SDS011;27024;54.068;12.116;2023-12-20T11:20:37;5.35;;;0.60;;
583;SDS011;27024;54.068;12.116;2023-12-20T11:23:05;3.33;;;0.20;;
583;SDS011;27024;54.068;12.116;2023-12-20T11:25:46;6.15;;;0.77;;
583;SDS011;27024;54.068;12.116;2023-12-20T11:28:20;4.25;;;0.45;;
583;SDS011;27024;54.068;12.116;2023-12-20T11:30:50;2.75;;;0.30;;
583;SDS011;27024;54.068;12.116;2023-12-20T11:33:22;5.40;;;0.63;;
583;SDS011;27024;54.068;12.116;2023-12-20T11:35:57;3.38;;;0.30;;
583;SDS011;27024;54.068;12.116;2023-12-20T11:38:26;3.97;;;0.10;;
583;SDS011;27024;54.068;12.116;2023-12-20T11:40:53;3.10;;;0.47;;
583;SDS011;27024;54.068;12.116;2023-12-20T11:43:32;2.45;;;0.10;;
583;SDS011;27024;54.068;12.116;2023-12-20T11:46:05;4.65;;;0.32;;
583;SDS011;27024;54.068;12.116;2023-12-20T11:48:39;1.48;;;0.10;;
583;SDS011;27024;54.068;12.116;2023-12-20T11:51:10;3.90;;;0.30;;
583;SDS011;27024;54.068;12.116;2023-12-20T11:53:38;2.72;;;0.20;;
583;SDS011;27024;54.068;12.116;2023-12-20T11:56:09;2.17;;;0.22;;
583;SDS011;27024;54.068;12.116;2023-12-20T11:58:36;3.70;;;0.30;;
583;SDS011;27024;54.068;12.116;2023-12-20T12:01:04;4.70;;;0.45;;
583;SDS011;27024;54.068;12.116;2023-12-20T12:03:35;5.38;;;0.70;;
583;SDS011;27024;54.068;12.116;2023-12-20T12:06:02;6.28;;;0.38;;
583;SDS011;27024;54.068;12.116;2023-12-20T12:08:31;3.13;;;0.20;;
583;SDS011;27024;54.068;12.116;2023-12-20T12:10:59;4.93;;;0.30;;
583;SDS011;27024;54.068;12.116;2023-12-20T12:13:26;3.85;;;0.30;;
583;SDS011;27024;54.068;12.116;2023-12-20T12:15:54;3.90;;;0.30;;
583;SDS011;27024;54.068;12.116;2023-12-20T12:18:21;1.58;;;0.20;;
583;SDS011;27024;54.068;12.116;2023-12-20T12:20:48;2.58;;;0.20;;
583;SDS011;27024;54.068;12.116;2023-12-20T12:23:22;3.30;;;0.22;;
583;SDS011;27024;54.068;12.116;2023-12-20T12:25:50;3.90;;;0.50;;
583;SDS011;27024;54.068;12.116;2023-12-20T12:28:17;3.20;;;1.13;;
583;SDS011;27024;54.068;12.116;2023-12-20T12:30:55;8.18;;;0.47;;
583;SDS011;27024;54.068;12.116;2023-12-20T12:33:24;5.93;;;0.45;;
583;SDS011;27024;54.068;12.116;2023-12-20T12:35:52;4.70;;;0.25;;
583;SDS011;27024;54.068;12.116;2023-12-20T12:38:20;6.97;;;0.57;;
583;SDS011;27024;54.068;12.116;2023-12-20T12:40:47;4.30;;;0.50;;
583;SDS011;27024;54.068;12.116;2023-12-20T12:43:16;6.45;;;0.43;;
583;SDS011;27024;54.068;12.116;2023-12-20T12:45:43;5.80;;;0.40;;
583;SDS011;27024;54.068;12.116;2023-12-20T12:48:10;3.33;;;0.20;;
583;SDS011;27024;54.068;12.116;2023-12-20T12:50:37;6.97;;;0.52;;
583;SDS011;27024;54.068;12.116;2023-12-20T12:53:04;3.42;;;0.40;;
583;SDS011;27024;54.068;12.116;2023-12-20T12:55:31;5.93;;;0.40;;
583;SDS011;27024;54.068;12.116;2023-12-20T12:57:58;8.77;;;0.52;;
583;SDS011;27024;54.068;12.116;2023-12-20T13:00:25;7.10;;;0.30;;
583;SDS011;27024;54.068;12.116;2023-12-20T13:02:52;2.85;;;0.20;;
583;SDS011;27024;54.068;12.116;2023-12-20T13:05:19;5.60;;;0.60;;
583;SDS011;27024;54.068;12.116;2023-12-20T13:07:46;10.40;;;0.52;;
583;SDS011;27024;54.068;12.116;2023-12-20T13:10:14;7.93;;;0.65;;
583;SDS011;27024;54.068;12.116;2023-12-20T13:12:43;6.05;;;0.60;;
583;SDS011;27024;54.068;12.116;2023-12-20T13:15:10;11.60;;;0.80;;
583;SDS011;27024;54.068;12.116;2023-12-20T13:17:37;5.18;;;0.50;;
583;SDS011;27024;54.068;12.116;2023-12-20T13:20:05;6.13;;;0.60;;
583;SDS011;27024;54.068;12.116;2023-12-20T13:22:32;7.55;;;0.40;;
583;SDS011;27024;54.068;12.116;2023-12-20T13:24:59;8.38;;;0.50;;
583;SDS011;27024;54.068;12.116;2023-12-20T13:27:28;2.50;;;0.43;;
583;SDS011;27024;54.068;12.116;2023-12-20T13:29:55;5.93;;;0.50;;
583;SDS011;27024;54.068;12.116;2023-12-20T13:32:22;5.15;;;0.50;;
583;SDS011;27024;54.068;12.116;2023-12-20T13:34:49;7.72;;;1.27;;
583;SDS011;27024;54.068;12.116;2023-12-20T13:37:17;5.68;;;0.57;;
583;SDS011;27024;54.068;12.116;2023-12-20T13:39:45;4.78;;;0.73;;
583;SDS011;27024;54.068;12.116;2023-12-20T13:42:12;5.35;;;0.57;;
583;SDS011;27024;54.068;12.116;2023-12-20T13:44:39;6.70;;;0.77;;
583;SDS011;27024;54.068;12.116;2023-12-20T13:47:06;6.75;;;1.20;;
583;SDS011;27024;54.068;12.116;2023-12-20T13:49:33;4.82;;;0.70;;
583;SDS011;27024;54.068;12.116;2023-12-20T13:52:00;8.90;;;0.73;;
583;SDS011;27024;54.068;12.116;2023-12-20T13:54:27;9.18;;;0.60;;
583;SDS011;27024;54.068;12.116;2023-12-20T13:56:54;6.43;;;0.50;;
583;SDS011;27024;54.068;12.116;2023-12-20T13:59:37;10.73;;;0.98;;
583;SDS011;27024;54.068;12.116;2023-12-20T14:02:04;6.00;;;0.98;;
583;SDS011;27024;54.068;12.116;2023-12-20T14:04:32;7.43;;;0.80;;
583;SDS011;27024;54.068;12.116;2023-12-20T14:07:09;9.20;;;0.57;;
583;SDS011;27024;54.068;12.116;2023-12-20T14:09:39;8.40;;;0.80;;
583;SDS011;27024;54.068;12.116;2023-12-20T14:12:13;3.35;;;0.68;;
583;SDS011;27024;54.068;12.116;2023-12-20T14:14:40;7.90;;;1.00;;
583;SDS011;27024;54.068;12.116;2023-12-20T14:17:07;7.25;;;0.93;;
583;SDS011;27024;54.068;12.116;2023-12-20T14:19:34;7.55;;;0.90;;
583;SDS011;27024;54.068;12.116;2023-12-20T14:22:01;7.93;;;1.10;;
583;SDS011;27024;54.068;12.116;2023-12-20T14:24:29;7.88;;;0.85;;
583;SDS011;27024;54.068;12.116;2023-12-20T14:26:56;8.27;;;0.90;;
583;SDS011;27024;54.068;12.116;2023-12-20T14:29:25;11.35;;;1.08;;
583;SDS011;27024;54.068;12.116;2023-12-20T14:31:52;9.88;;;1.05;;
583;SDS011;27024;54.068;12.116;2023-12-20T14:34:20;8.23;;;1.10;;
583;SDS011;27024;54.068;12.116;2023-12-20T14:36:47;10.88;;;1.20;;
583;SDS011;27024;54.068;12.116;2023-12-20T14:39:14;7.60;;;1.10;;
583;SDS011;27024;54.068;12.116;2023-12-20T14:41:44;9.00;;;1.20;;
583;SDS011;27024;54.068;12.116;2023-12-20T14:44:11;8.52;;;1.00;;
583;SDS011;27024;54.068;12.116;2023-12-20T14:46:38;15.48;;;2.22;;
583;SDS011;27024;54.068;12.116;2023-12-20T14:49:07;5.22;;;1.45;;
583;SDS011;27024;54.068;12.116;2023-12-20T14:51:35;8.63;;;1.58;;
583;SDS011;27024;54.068;12.116;2023-12-20T14:54:03;9.77;;;1.67;;
583;SDS011;27024;54.068;12.116;2023-12-20T14:56:32;12.00;;;1.73;;
583;SDS011;27024;54.068;12.116;2023-12-20T14:58:59;9.30;;;1.58;;
583;SDS011;27024;54.068;12.116;2023-12-20T15:01:28;10.95;;;1.40;;
583;SDS011;27024;54.068;12.116;2023-12-20T15:03:57;11.70;;;1.30;;
583;SDS011;27024;54.068;12.116;2023-12-20T15:06:24;8.50;;;1.30;;